sensor_id;sensor_type;location;lat;lon;timestamp;P1;durP1;ratioP1;P2;durP2;ratioP2
52432;SDS011;38352;53.244;6.594;2022-12-10T00:01:04;59.83;;;24.30;;
52432;SDS011;38352;53.244;6.594;2022-12-10T00:03:31;58.97;;;24.70;;
52432;SDS011;38352;53.244;6.594;2022-12-10T00:06:04;59.63;;;23.33;;
52432;SDS011;38352;53.244;6.594;2022-12-10T00:08:31;53.95;;;23.20;;
52432;SDS011;38352;53.244;6.594;2022-12-10T00:10:57;55.10;;;23.48;;
52432;SDS011;38352;53.244;6.594;2022-12-10T00:13:23;54.30;;;22.58;;
52432;SDS011;38352;53.244;6.594;2022-12-10T00:15:49;55.75;;;22.88;;
52432;SDS011;38352;53.244;6.594;2022-12-10T00:18:15;54.55;;;23.60;;
52432;SDS011;38352;53.244;6.594;2022-12-10T00:20:42;55.53;;;22.38;;
52432;SDS011;38352;53.244;6.594;2022-12-10T00:23:08;54.45;;;23.48;;
52432;SDS011;38352;53.244;6.594;2022-12-10T00:25:34;54.78;;;23.92;;
52432;SDS011;38352;53.244;6.594;2022-12-10T00:28:00;55.65;;;21.92;;
52432;SDS011;38352;53.244;6.594;2022-12-10T00:30:26;55.35;;;23.15;;
52432;SDS011;38352;53.244;6.594;2022-12-10T00:32:52;60.85;;;26.40;;
52432;SDS011;38352;53.244;6.594;2022-12-10T00:35:18;60.05;;;25.70;;
52432;SDS011;38352;53.244;6.594;2022-12-10T00:37:44;61.25;;;24.80;;
52432;SDS011;38352;53.244;6.594;2022-12-10T00:40:10;50.92;;;23.92;;
52432;SDS011;38352;53.244;6.594;2022-12-10T00:42:36;59.10;;;25.98;;
52432;SDS011;38352;53.244;6.594;2022-12-10T00:45:03;50.45;;;21.95;;
52432;SDS011;38352;53.244;6.594;2022-12-10T00:47:29;61.65;;;25.20;;
52432;SDS011;38352;53.244;6.594;2022-12-10T00:49:55;62.75;;;26.23;;
52432;SDS011;38352;53.244;6.594;2022-12-10T00:52:21;59.95;;;25.95;;
52432;SDS011;38352;53.244;6.594;2022-12-10T00:54:47;57.90;;;26.85;;
52432;SDS011;38352;53.244;6.594;2022-12-10T00:57:13;65.07;;;27.00;;
52432;SDS011;38352;53.244;6.594;2022-12-10T00:59:39;71.35;;;28.52;;
52432;SDS011;38352;53.244;6.594;2022-12-10T01:02:05;61.67;;;27.55;;
52432;SDS011;38352;53.244;6.594;2022-12-10T01:04:31;75.20;;;28.60;;
52432;SDS011;38352;53.244;6.594;2022-12-10T01:06:58;68.90;;;26.00;;
52432;SDS011;38352;53.244;6.594;2022-12-10T01:09:26;68.45;;;29.20;;
52432;SDS011;38352;53.244;6.594;2022-12-10T01:11:52;67.13;;;27.08;;
52432;SDS011;38352;53.244;6.594;2022-12-10T01:14:21;58.42;;;25.58;;
52432;SDS011;38352;53.244;6.594;2022-12-10T01:16:48;69.85;;;26.58;;
52432;SDS011;38352;53.244;6.594;2022-12-10T01:19:14;69.35;;;27.75;;
52432;SDS011;38352;53.244;6.594;2022-12-10T01:21:40;64.68;;;27.25;;
52432;SDS011;38352;53.244;6.594;2022-12-10T01:24:06;60.70;;;24.80;;
52432;SDS011;38352;53.244;6.594;2022-12-10T01:26:33;67.68;;;28.92;;
52432;SDS011;38352;53.244;6.594;2022-12-10T01:29:00;71.53;;;30.00;;
52432;SDS011;38352;53.244;6.594;2022-12-10T01:31:27;68.32;;;27.48;;
52432;SDS011;38352;53.244;6.594;2022-12-10T01:33:53;70.70;;;28.92;;
52432;SDS011;38352;53.244;6.594;2022-12-10T01:36:24;64.22;;;27.95;;
52432;SDS011;38352;53.244;6.594;2022-12-10T01:38:51;71.65;;;29.17;;
52432;SDS011;38352;53.244;6.594;2022-12-10T01:41:20;63.50;;;26.48;;
52432;SDS011;38352;53.244;6.594;2022-12-10T01:43:54;66.50;;;28.42;;
52432;SDS011;38352;53.244;6.594;2022-12-10T01:48:46;70.45;;;28.58;;
52432;SDS011;38352;53.244;6.594;2022-12-10T01:51:13;70.57;;;27.30;;
52432;SDS011;38352;53.244;6.594;2022-12-10T01:53:40;72.70;;;28.30;;
52432;SDS011;38352;53.244;6.594;2022-12-10T01:56:06;62.55;;;27.17;;
52432;SDS011;38352;53.244;6.594;2022-12-10T01:58:32;68.00;;;27.45;;
52432;SDS011;38352;53.244;6.594;2022-12-10T02:04:11;73.18;;;30.20;;
52432;SDS011;38352;53.244;6.594;2022-12-10T02:11:29;71.63;;;28.65;;
52432;SDS011;38352;53.244;6.594;2022-12-10T02:16:36;70.78;;;29.98;;
52432;SDS011;38352;53.244;6.594;2022-12-10T02:21:33;70.43;;;29.38;;
52432;SDS011;38352;53.244;6.594;2022-12-10T02:24:02;69.53;;;28.48;;
52432;SDS011;38352;53.244;6.594;2022-12-10T02:29:06;71.88;;;30.35;;
52432;SDS011;38352;53.244;6.594;2022-12-10T02:31:37;73.25;;;28.00;;
52432;SDS011;38352;53.244;6.594;2022-12-10T02:34:05;74.97;;;28.95;;
52432;SDS011;38352;53.244;6.594;2022-12-10T02:36:33;66.75;;;29.02;;
52432;SDS011;38352;53.244;6.594;2022-12-10T02:39:01;76.43;;;29.20;;
52432;SDS011;38352;53.244;6.594;2022-12-10T02:41:28;72.85;;;30.95;;
52432;SDS011;38352;53.244;6.594;2022-12-10T02:43:57;74.50;;;30.83;;
52432;SDS011;38352;53.244;6.594;2022-12-10T02:46:24;63.72;;;29.48;;
52432;SDS011;38352;53.244;6.594;2022-12-10T02:48:53;81.65;;;32.13;;
52432;SDS011;38352;53.244;6.594;2022-12-10T02:51:19;77.90;;;31.38;;
52432;SDS011;38352;53.244;6.594;2022-12-10T02:53:46;75.78;;;31.02;;
52432;SDS011;38352;53.244;6.594;2022-12-10T02:58:56;73.55;;;28.83;;
52432;SDS011;38352;53.244;6.594;2022-12-10T03:01:33;74.03;;;30.20;;
52432;SDS011;38352;53.244;6.594;2022-12-10T03:04:45;77.65;;;28.60;;
52432;SDS011;38352;53.244;6.594;2022-12-10T03:06:57;72.53;;;29.10;;
52432;SDS011;38352;53.244;6.594;2022-12-10T03:09:29;70.22;;;30.48;;
52432;SDS011;38352;53.244;6.594;2022-12-10T03:11:58;79.95;;;30.40;;
52432;SDS011;38352;53.244;6.594;2022-12-10T03:14:27;70.75;;;30.73;;
52432;SDS011;38352;53.244;6.594;2022-12-10T03:16:55;83.72;;;32.65;;
52432;SDS011;38352;53.244;6.594;2022-12-10T03:19:23;74.47;;;31.48;;
52432;SDS011;38352;53.244;6.594;2022-12-10T03:21:49;78.22;;;30.40;;
52432;SDS011;38352;53.244;6.594;2022-12-10T03:24:16;72.93;;;28.73;;
52432;SDS011;38352;53.244;6.594;2022-12-10T03:26:43;69.72;;;29.30;;
52432;SDS011;38352;53.244;6.594;2022-12-10T03:29:13;74.28;;;30.95;;
52432;SDS011;38352;53.244;6.594;2022-12-10T03:31:40;68.97;;;28.85;;
52432;SDS011;38352;53.244;6.594;2022-12-10T03:34:07;68.38;;;29.60;;
52432;SDS011;38352;53.244;6.594;2022-12-10T03:36:34;83.63;;;30.63;;
52432;SDS011;38352;53.244;6.594;2022-12-10T03:39:01;78.60;;;31.85;;
52432;SDS011;38352;53.244;6.594;2022-12-10T03:41:27;70.05;;;29.90;;
52432;SDS011;38352;53.244;6.594;2022-12-10T03:43:54;68.35;;;28.63;;
52432;SDS011;38352;53.244;6.594;2022-12-10T03:46:21;73.47;;;29.23;;
52432;SDS011;38352;53.244;6.594;2022-12-10T03:48:48;75.78;;;30.25;;
52432;SDS011;38352;53.244;6.594;2022-12-10T03:51:14;80.80;;;30.05;;
52432;SDS011;38352;53.244;6.594;2022-12-10T03:53:40;68.13;;;29.85;;
52432;SDS011;38352;53.244;6.594;2022-12-10T03:56:06;78.43;;;31.52;;
52432;SDS011;38352;53.244;6.594;2022-12-10T03:58:32;74.40;;;29.80;;
52432;SDS011;38352;53.244;6.594;2022-12-10T04:00:58;67.82;;;27.45;;
52432;SDS011;38352;53.244;6.594;2022-12-10T04:03:24;72.00;;;28.25;;
52432;SDS011;38352;53.244;6.594;2022-12-10T04:05:50;70.63;;;30.67;;
52432;SDS011;38352;53.244;6.594;2022-12-10T04:08:16;87.90;;;31.30;;
52432;SDS011;38352;53.244;6.594;2022-12-10T04:10:42;76.53;;;30.67;;
52432;SDS011;38352;53.244;6.594;2022-12-10T04:13:08;80.47;;;30.00;;
52432;SDS011;38352;53.244;6.594;2022-12-10T04:15:53;71.90;;;29.50;;
52432;SDS011;38352;53.244;6.594;2022-12-10T04:18:38;75.63;;;29.38;;
52432;SDS011;38352;53.244;6.594;2022-12-10T04:21:04;72.10;;;30.90;;
52432;SDS011;38352;53.244;6.594;2022-12-10T04:23:48;74.10;;;31.27;;
52432;SDS011;38352;53.244;6.594;2022-12-10T04:26:33;75.47;;;31.08;;
52432;SDS011;38352;53.244;6.594;2022-12-10T04:29:18;77.88;;;31.08;;
52432;SDS011;38352;53.244;6.594;2022-12-10T04:31:44;72.20;;;28.85;;
52432;SDS011;38352;53.244;6.594;2022-12-10T04:34:10;70.55;;;31.88;;
52432;SDS011;38352;53.244;6.594;2022-12-10T04:36:36;77.15;;;31.10;;
52432;SDS011;38352;53.244;6.594;2022-12-10T04:39:02;76.03;;;29.45;;
52432;SDS011;38352;53.244;6.594;2022-12-10T04:41:29;78.53;;;30.75;;
52432;SDS011;38352;53.244;6.594;2022-12-10T04:43:55;81.43;;;32.72;;
52432;SDS011;38352;53.244;6.594;2022-12-10T04:46:21;85.45;;;33.40;;
52432;SDS011;38352;53.244;6.594;2022-12-10T04:48:47;75.38;;;30.85;;
52432;SDS011;38352;53.244;6.594;2022-12-10T04:51:13;80.25;;;31.83;;
52432;SDS011;38352;53.244;6.594;2022-12-10T04:53:39;72.95;;;32.35;;
52432;SDS011;38352;53.244;6.594;2022-12-10T04:56:05;84.93;;;32.97;;
52432;SDS011;38352;53.244;6.594;2022-12-10T04:58:32;69.32;;;29.73;;
52432;SDS011;38352;53.244;6.594;2022-12-10T05:01:02;78.32;;;31.65;;
52432;SDS011;38352;53.244;6.594;2022-12-10T05:03:29;80.38;;;30.55;;
52432;SDS011;38352;53.244;6.594;2022-12-10T05:05:55;79.63;;;31.00;;
52432;SDS011;38352;53.244;6.594;2022-12-10T05:08:21;80.20;;;32.10;;
52432;SDS011;38352;53.244;6.594;2022-12-10T05:10:47;89.38;;;32.53;;
52432;SDS011;38352;53.244;6.594;2022-12-10T05:13:13;87.03;;;31.38;;
52432;SDS011;38352;53.244;6.594;2022-12-10T05:15:39;82.28;;;32.25;;
52432;SDS011;38352;53.244;6.594;2022-12-10T05:18:06;76.60;;;30.60;;
52432;SDS011;38352;53.244;6.594;2022-12-10T05:20:32;82.35;;;32.08;;
52432;SDS011;38352;53.244;6.594;2022-12-10T05:22:58;85.22;;;34.60;;
52432;SDS011;38352;53.244;6.594;2022-12-10T05:25:42;91.50;;;32.17;;
52432;SDS011;38352;53.244;6.594;2022-12-10T05:28:21;91.72;;;35.40;;
52432;SDS011;38352;53.244;6.594;2022-12-10T05:30:48;88.80;;;34.88;;
52432;SDS011;38352;53.244;6.594;2022-12-10T05:33:14;104.03;;;35.33;;
52432;SDS011;38352;53.244;6.594;2022-12-10T05:35:40;95.97;;;35.83;;
52432;SDS011;38352;53.244;6.594;2022-12-10T05:38:06;102.47;;;38.38;;
52432;SDS011;38352;53.244;6.594;2022-12-10T05:40:36;96.38;;;36.78;;
52432;SDS011;38352;53.244;6.594;2022-12-10T05:43:02;95.28;;;34.88;;
52432;SDS011;38352;53.244;6.594;2022-12-10T05:45:31;96.68;;;37.50;;
52432;SDS011;38352;53.244;6.594;2022-12-10T05:47:57;97.57;;;35.40;;
52432;SDS011;38352;53.244;6.594;2022-12-10T05:50:23;97.40;;;36.63;;
52432;SDS011;38352;53.244;6.594;2022-12-10T05:52:50;104.38;;;36.85;;
52432;SDS011;38352;53.244;6.594;2022-12-10T05:55:16;100.38;;;38.38;;
52432;SDS011;38352;53.244;6.594;2022-12-10T05:57:42;117.30;;;39.83;;
52432;SDS011;38352;53.244;6.594;2022-12-10T06:00:08;106.78;;;37.60;;
52432;SDS011;38352;53.244;6.594;2022-12-10T06:02:35;116.43;;;39.90;;
52432;SDS011;38352;53.244;6.594;2022-12-10T06:05:01;124.95;;;40.67;;
52432;SDS011;38352;53.244;6.594;2022-12-10T06:07:27;112.47;;;38.13;;
52432;SDS011;38352;53.244;6.594;2022-12-10T06:09:54;121.95;;;38.83;;
52432;SDS011;38352;53.244;6.594;2022-12-10T06:12:20;122.95;;;40.15;;
52432;SDS011;38352;53.244;6.594;2022-12-10T06:14:47;117.00;;;39.88;;
52432;SDS011;38352;53.244;6.594;2022-12-10T06:17:13;126.82;;;40.03;;
52432;SDS011;38352;53.244;6.594;2022-12-10T06:19:39;158.75;;;40.53;;
52432;SDS011;38352;53.244;6.594;2022-12-10T06:22:05;133.10;;;40.55;;
52432;SDS011;38352;53.244;6.594;2022-12-10T06:24:31;142.98;;;41.13;;
52432;SDS011;38352;53.244;6.594;2022-12-10T06:26:57;94.35;;;38.25;;
52432;SDS011;38352;53.244;6.594;2022-12-10T06:29:23;123.18;;;40.50;;
52432;SDS011;38352;53.244;6.594;2022-12-10T06:31:49;114.80;;;38.30;;
52432;SDS011;38352;53.244;6.594;2022-12-10T06:34:15;147.60;;;41.72;;
52432;SDS011;38352;53.244;6.594;2022-12-10T06:36:41;121.63;;;40.33;;
52432;SDS011;38352;53.244;6.594;2022-12-10T06:39:07;125.25;;;42.53;;
52432;SDS011;38352;53.244;6.594;2022-12-10T06:41:33;135.30;;;40.40;;
52432;SDS011;38352;53.244;6.594;2022-12-10T06:43:59;120.45;;;40.17;;
52432;SDS011;38352;53.244;6.594;2022-12-10T06:46:26;170.73;;;45.67;;
52432;SDS011;38352;53.244;6.594;2022-12-10T06:48:55;165.45;;;46.22;;
52432;SDS011;38352;53.244;6.594;2022-12-10T06:51:21;158.70;;;41.88;;
52432;SDS011;38352;53.244;6.594;2022-12-10T06:53:47;112.43;;;38.50;;
52432;SDS011;38352;53.244;6.594;2022-12-10T06:56:14;139.73;;;40.50;;
52432;SDS011;38352;53.244;6.594;2022-12-10T06:58:41;129.98;;;40.03;;
52432;SDS011;38352;53.244;6.594;2022-12-10T07:01:11;150.55;;;41.92;;
52432;SDS011;38352;53.244;6.594;2022-12-10T07:03:38;147.40;;;43.58;;
52432;SDS011;38352;53.244;6.594;2022-12-10T07:06:04;159.05;;;45.28;;
52432;SDS011;38352;53.244;6.594;2022-12-10T07:08:31;140.88;;;41.78;;
52432;SDS011;38352;53.244;6.594;2022-12-10T07:10:57;175.45;;;45.50;;
52432;SDS011;38352;53.244;6.594;2022-12-10T07:13:23;168.30;;;49.08;;
52432;SDS011;38352;53.244;6.594;2022-12-10T07:15:50;262.02;;;57.22;;
52432;SDS011;38352;53.244;6.594;2022-12-10T07:18:16;222.25;;;51.90;;
52432;SDS011;38352;53.244;6.594;2022-12-10T07:20:42;243.38;;;53.67;;
52432;SDS011;38352;53.244;6.594;2022-12-10T07:23:08;230.63;;;47.67;;
52432;SDS011;38352;53.244;6.594;2022-12-10T07:25:34;196.60;;;46.25;;
52432;SDS011;38352;53.244;6.594;2022-12-10T07:28:00;152.13;;;42.03;;
52432;SDS011;38352;53.244;6.594;2022-12-10T07:30:26;248.98;;;54.20;;
52432;SDS011;38352;53.244;6.594;2022-12-10T07:32:52;141.88;;;43.08;;
52432;SDS011;38352;53.244;6.594;2022-12-10T07:35:18;215.20;;;49.78;;
52432;SDS011;38352;53.244;6.594;2022-12-10T07:37:44;173.77;;;45.60;;
52432;SDS011;38352;53.244;6.594;2022-12-10T07:40:10;186.35;;;52.05;;
52432;SDS011;38352;53.244;6.594;2022-12-10T07:42:36;280.63;;;58.22;;
52432;SDS011;38352;53.244;6.594;2022-12-10T07:45:03;208.40;;;52.63;;
52432;SDS011;38352;53.244;6.594;2022-12-10T07:47:29;308.48;;;58.70;;
52432;SDS011;38352;53.244;6.594;2022-12-10T07:49:55;204.13;;;51.40;;
52432;SDS011;38352;53.244;6.594;2022-12-10T07:52:21;225.13;;;45.28;;
52432;SDS011;38352;53.244;6.594;2022-12-10T07:54:47;211.00;;;43.90;;
52432;SDS011;38352;53.244;6.594;2022-12-10T07:57:13;184.60;;;46.20;;
52432;SDS011;38352;53.244;6.594;2022-12-10T07:59:40;175.52;;;42.20;;
52432;SDS011;38352;53.244;6.594;2022-12-10T08:02:07;184.63;;;44.72;;
52432;SDS011;38352;53.244;6.594;2022-12-10T08:04:33;292.50;;;55.28;;
52432;SDS011;38352;53.244;6.594;2022-12-10T08:06:59;185.15;;;43.53;;
52432;SDS011;38352;53.244;6.594;2022-12-10T08:09:25;163.65;;;42.05;;
52432;SDS011;38352;53.244;6.594;2022-12-10T08:11:52;183.82;;;46.78;;
52432;SDS011;38352;53.244;6.594;2022-12-10T08:14:18;184.13;;;44.85;;
52432;SDS011;38352;53.244;6.594;2022-12-10T08:16:44;127.38;;;39.80;;
52432;SDS011;38352;53.244;6.594;2022-12-10T08:19:10;137.38;;;44.25;;
52432;SDS011;38352;53.244;6.594;2022-12-10T08:21:36;129.98;;;38.78;;
52432;SDS011;38352;53.244;6.594;2022-12-10T08:24:02;218.77;;;49.22;;
52432;SDS011;38352;53.244;6.594;2022-12-10T08:26:29;146.95;;;42.40;;
52432;SDS011;38352;53.244;6.594;2022-12-10T08:28:57;214.38;;;42.65;;
52432;SDS011;38352;53.244;6.594;2022-12-10T08:31:23;127.78;;;38.10;;
52432;SDS011;38352;53.244;6.594;2022-12-10T08:33:49;152.32;;;40.97;;
52432;SDS011;38352;53.244;6.594;2022-12-10T08:36:16;166.15;;;38.78;;
52432;SDS011;38352;53.244;6.594;2022-12-10T08:38:43;130.68;;;37.30;;
52432;SDS011;38352;53.244;6.594;2022-12-10T08:41:10;127.30;;;37.92;;
52432;SDS011;38352;53.244;6.594;2022-12-10T08:43:37;115.38;;;36.53;;
52432;SDS011;38352;53.244;6.594;2022-12-10T08:46:03;114.25;;;35.25;;
52432;SDS011;38352;53.244;6.594;2022-12-10T08:48:30;117.22;;;34.90;;
52432;SDS011;38352;53.244;6.594;2022-12-10T08:50:56;108.90;;;37.63;;
52432;SDS011;38352;53.244;6.594;2022-12-10T08:53:22;101.65;;;36.00;;
52432;SDS011;38352;53.244;6.594;2022-12-10T08:55:52;111.85;;;36.53;;
52432;SDS011;38352;53.244;6.594;2022-12-10T08:58:18;112.15;;;32.70;;
52432;SDS011;38352;53.244;6.594;2022-12-10T09:00:45;97.47;;;35.65;;
52432;SDS011;38352;53.244;6.594;2022-12-10T09:03:11;95.57;;;32.75;;
52432;SDS011;38352;53.244;6.594;2022-12-10T09:05:37;88.13;;;33.63;;
52432;SDS011;38352;53.244;6.594;2022-12-10T09:08:03;84.72;;;32.50;;
52432;SDS011;38352;53.244;6.594;2022-12-10T09:10:29;87.70;;;31.85;;
52432;SDS011;38352;53.244;6.594;2022-12-10T09:12:56;95.55;;;32.50;;
52432;SDS011;38352;53.244;6.594;2022-12-10T09:15:22;120.88;;;35.25;;
52432;SDS011;38352;53.244;6.594;2022-12-10T09:17:48;97.65;;;32.63;;
52432;SDS011;38352;53.244;6.594;2022-12-10T09:20:14;99.20;;;30.67;;
52432;SDS011;38352;53.244;6.594;2022-12-10T09:22:40;90.63;;;30.30;;
52432;SDS011;38352;53.244;6.594;2022-12-10T09:25:07;81.72;;;29.35;;
52432;SDS011;38352;53.244;6.594;2022-12-10T09:27:35;79.63;;;25.20;;
52432;SDS011;38352;53.244;6.594;2022-12-10T09:30:02;96.30;;;30.02;;
52432;SDS011;38352;53.244;6.594;2022-12-10T09:32:28;103.00;;;27.33;;
52432;SDS011;38352;53.244;6.594;2022-12-10T09:34:54;107.45;;;26.58;;
52432;SDS011;38352;53.244;6.594;2022-12-10T09:37:20;77.90;;;27.73;;
52432;SDS011;38352;53.244;6.594;2022-12-10T09:39:46;75.60;;;29.00;;
52432;SDS011;38352;53.244;6.594;2022-12-10T09:45:01;100.45;;;28.42;;
52432;SDS011;38352;53.244;6.594;2022-12-10T09:47:40;102.70;;;30.95;;
52432;SDS011;38352;53.244;6.594;2022-12-10T09:50:13;68.88;;;25.75;;
52432;SDS011;38352;53.244;6.594;2022-12-10T09:52:43;87.38;;;27.70;;
52432;SDS011;38352;53.244;6.594;2022-12-10T09:55:57;66.97;;;25.42;;
52432;SDS011;38352;53.244;6.594;2022-12-10T09:57:58;101.25;;;29.13;;
52432;SDS011;38352;53.244;6.594;2022-12-10T10:00:46;75.78;;;28.45;;
52432;SDS011;38352;53.244;6.594;2022-12-10T10:03:12;86.70;;;29.38;;
52432;SDS011;38352;53.244;6.594;2022-12-10T10:05:42;73.38;;;28.27;;
52432;SDS011;38352;53.244;6.594;2022-12-10T10:08:13;69.65;;;28.42;;
52432;SDS011;38352;53.244;6.594;2022-12-10T10:10:40;73.80;;;27.05;;
52432;SDS011;38352;53.244;6.594;2022-12-10T10:15:33;100.45;;;30.27;;
52432;SDS011;38352;53.244;6.594;2022-12-10T10:20:44;89.72;;;31.58;;
52432;SDS011;38352;53.244;6.594;2022-12-10T10:23:12;93.70;;;30.40;;
52432;SDS011;38352;53.244;6.594;2022-12-10T10:25:39;84.65;;;29.35;;
52432;SDS011;38352;53.244;6.594;2022-12-10T10:28:05;89.57;;;32.10;;
52432;SDS011;38352;53.244;6.594;2022-12-10T10:30:31;85.30;;;30.20;;
52432;SDS011;38352;53.244;6.594;2022-12-10T10:32:58;92.22;;;34.58;;
52432;SDS011;38352;53.244;6.594;2022-12-10T10:35:30;89.90;;;30.67;;
52432;SDS011;38352;53.244;6.594;2022-12-10T10:38:16;73.43;;;29.13;;
52432;SDS011;38352;53.244;6.594;2022-12-10T10:40:43;74.05;;;28.50;;
52432;SDS011;38352;53.244;6.594;2022-12-10T10:46:11;67.03;;;28.58;;
52432;SDS011;38352;53.244;6.594;2022-12-10T10:48:38;60.67;;;25.83;;
52432;SDS011;38352;53.244;6.594;2022-12-10T10:53:43;56.63;;;25.42;;
52432;SDS011;38352;53.244;6.594;2022-12-10T10:56:16;57.03;;;24.83;;
52432;SDS011;38352;53.244;6.594;2022-12-10T10:58:58;47.25;;;20.48;;
52432;SDS011;38352;53.244;6.594;2022-12-10T11:01:27;35.65;;;18.48;;
52432;SDS011;38352;53.244;6.594;2022-12-10T11:04:08;44.90;;;20.02;;
52432;SDS011;38352;53.244;6.594;2022-12-10T11:06:35;41.75;;;18.48;;
52432;SDS011;38352;53.244;6.594;2022-12-10T11:09:01;45.15;;;19.52;;
52432;SDS011;38352;53.244;6.594;2022-12-10T11:11:39;45.30;;;19.52;;
52432;SDS011;38352;53.244;6.594;2022-12-10T11:14:19;52.72;;;21.25;;
52432;SDS011;38352;53.244;6.594;2022-12-10T11:16:48;43.85;;;21.58;;
52432;SDS011;38352;53.244;6.594;2022-12-10T11:19:22;46.83;;;21.65;;
52432;SDS011;38352;53.244;6.594;2022-12-10T11:21:51;47.03;;;21.98;;
52432;SDS011;38352;53.244;6.594;2022-12-10T11:24:19;46.05;;;20.48;;
52432;SDS011;38352;53.244;6.594;2022-12-10T11:39:30;42.90;;;20.15;;
52432;SDS011;38352;53.244;6.594;2022-12-10T11:47:00;47.03;;;20.90;;
52432;SDS011;38352;53.244;6.594;2022-12-10T11:52:18;39.40;;;18.40;;
52432;SDS011;38352;53.244;6.594;2022-12-10T12:02:54;47.20;;;21.38;;
52432;SDS011;38352;53.244;6.594;2022-12-10T12:13:10;45.40;;;21.10;;
52432;SDS011;38352;53.244;6.594;2022-12-10T12:18:50;50.47;;;21.90;;
52432;SDS011;38352;53.244;6.594;2022-12-10T12:23:34;50.22;;;22.77;;
52432;SDS011;38352;53.244;6.594;2022-12-10T12:26:03;59.92;;;24.55;;
52432;SDS011;38352;53.244;6.594;2022-12-10T12:31:35;55.47;;;22.90;;
52432;SDS011;38352;53.244;6.594;2022-12-10T12:33:55;56.70;;;24.05;;
52432;SDS011;38352;53.244;6.594;2022-12-10T12:36:26;53.88;;;24.27;;
52432;SDS011;38352;53.244;6.594;2022-12-10T12:39:00;58.00;;;24.88;;
52432;SDS011;38352;53.244;6.594;2022-12-10T12:44:13;54.45;;;22.85;;
52432;SDS011;38352;53.244;6.594;2022-12-10T12:46:44;63.15;;;24.80;;
52432;SDS011;38352;53.244;6.594;2022-12-10T12:49:22;51.95;;;23.40;;
52432;SDS011;38352;53.244;6.594;2022-12-10T12:52:09;64.40;;;24.50;;
52432;SDS011;38352;53.244;6.594;2022-12-10T12:54:40;61.80;;;25.00;;
52432;SDS011;38352;53.244;6.594;2022-12-10T12:57:14;56.92;;;24.52;;
52432;SDS011;38352;53.244;6.594;2022-12-10T13:02:25;56.15;;;24.23;;
52432;SDS011;38352;53.244;6.594;2022-12-10T13:04:52;65.70;;;26.02;;
52432;SDS011;38352;53.244;6.594;2022-12-10T13:17:35;61.78;;;24.05;;
52432;SDS011;38352;53.244;6.594;2022-12-10T13:28:20;82.78;;;27.55;;
52432;SDS011;38352;53.244;6.594;2022-12-10T13:31:06;75.22;;;23.73;;
52432;SDS011;38352;53.244;6.594;2022-12-10T13:36:21;67.68;;;28.15;;
52432;SDS011;38352;53.244;6.594;2022-12-10T13:38:57;64.40;;;26.13;;
52432;SDS011;38352;53.244;6.594;2022-12-10T13:42:22;75.13;;;26.15;;
52432;SDS011;38352;53.244;6.594;2022-12-10T13:44:59;83.28;;;26.52;;
52432;SDS011;38352;53.244;6.594;2022-12-10T13:47:27;74.05;;;26.52;;
52432;SDS011;38352;53.244;6.594;2022-12-10T13:49:57;84.03;;;27.15;;
52432;SDS011;38352;53.244;6.594;2022-12-10T14:00:19;74.05;;;25.75;;
52432;SDS011;38352;53.244;6.594;2022-12-10T14:08:32;78.20;;;27.92;;
52432;SDS011;38352;53.244;6.594;2022-12-10T14:11:00;78.68;;;26.35;;
52432;SDS011;38352;53.244;6.594;2022-12-10T14:13:31;101.90;;;25.50;;
52432;SDS011;38352;53.244;6.594;2022-12-10T14:15:59;74.72;;;26.48;;
52432;SDS011;38352;53.244;6.594;2022-12-10T14:18:27;86.93;;;29.95;;
52432;SDS011;38352;53.244;6.594;2022-12-10T14:20:53;79.63;;;28.52;;
52432;SDS011;38352;53.244;6.594;2022-12-10T14:23:27;72.80;;;28.23;;
52432;SDS011;38352;53.244;6.594;2022-12-10T14:28:41;81.88;;;28.55;;
52432;SDS011;38352;53.244;6.594;2022-12-10T14:31:10;68.95;;;26.55;;
52432;SDS011;38352;53.244;6.594;2022-12-10T14:33:38;71.55;;;27.00;;
52432;SDS011;38352;53.244;6.594;2022-12-10T14:36:04;109.00;;;29.30;;
52432;SDS011;38352;53.244;6.594;2022-12-10T14:38:32;69.78;;;28.23;;
52432;SDS011;38352;53.244;6.594;2022-12-10T14:40:59;70.32;;;30.38;;
52432;SDS011;38352;53.244;6.594;2022-12-10T14:43:36;81.18;;;27.35;;
52432;SDS011;38352;53.244;6.594;2022-12-10T14:46:03;80.30;;;27.45;;
52432;SDS011;38352;53.244;6.594;2022-12-10T14:48:29;90.00;;;29.75;;
52432;SDS011;38352;53.244;6.594;2022-12-10T14:50:56;65.40;;;26.20;;
52432;SDS011;38352;53.244;6.594;2022-12-10T14:53:28;83.80;;;27.65;;
52432;SDS011;38352;53.244;6.594;2022-12-10T14:56:04;77.85;;;26.05;;
52432;SDS011;38352;53.244;6.594;2022-12-10T14:58:47;66.60;;;25.17;;
52432;SDS011;38352;53.244;6.594;2022-12-10T15:01:22;76.45;;;24.88;;
52432;SDS011;38352;53.244;6.594;2022-12-10T15:03:52;85.22;;;27.77;;
52432;SDS011;38352;53.244;6.594;2022-12-10T15:06:18;69.78;;;28.10;;
52432;SDS011;38352;53.244;6.594;2022-12-10T15:08:45;97.32;;;29.75;;
52432;SDS011;38352;53.244;6.594;2022-12-10T15:11:19;84.65;;;28.95;;
52432;SDS011;38352;53.244;6.594;2022-12-10T15:13:46;73.22;;;25.85;;
52432;SDS011;38352;53.244;6.594;2022-12-10T15:16:19;60.22;;;22.88;;
52432;SDS011;38352;53.244;6.594;2022-12-10T15:18:45;63.10;;;26.35;;
52432;SDS011;38352;53.244;6.594;2022-12-10T15:21:18;83.30;;;29.40;;
52432;SDS011;38352;53.244;6.594;2022-12-10T15:23:45;82.78;;;28.10;;
52432;SDS011;38352;53.244;6.594;2022-12-10T15:26:19;68.78;;;25.75;;
52432;SDS011;38352;53.244;6.594;2022-12-10T15:28:46;73.43;;;26.67;;
52432;SDS011;38352;53.244;6.594;2022-12-10T15:33:41;92.53;;;28.67;;
52432;SDS011;38352;53.244;6.594;2022-12-10T15:36:18;72.38;;;24.10;;
52432;SDS011;38352;53.244;6.594;2022-12-10T15:38:45;58.75;;;22.58;;
52432;SDS011;38352;53.244;6.594;2022-12-10T15:44:03;60.85;;;23.50;;
52432;SDS011;38352;53.244;6.594;2022-12-10T15:46:30;70.18;;;26.17;;
52432;SDS011;38352;53.244;6.594;2022-12-10T15:48:56;72.25;;;24.00;;
52432;SDS011;38352;53.244;6.594;2022-12-10T15:51:22;63.35;;;24.00;;
52432;SDS011;38352;53.244;6.594;2022-12-10T15:53:48;77.35;;;26.98;;
52432;SDS011;38352;53.244;6.594;2022-12-10T15:56:14;78.63;;;25.73;;
52432;SDS011;38352;53.244;6.594;2022-12-10T15:58:40;62.35;;;24.30;;
52432;SDS011;38352;53.244;6.594;2022-12-10T16:01:08;59.08;;;23.25;;
52432;SDS011;38352;53.244;6.594;2022-12-10T16:03:34;60.90;;;23.52;;
52432;SDS011;38352;53.244;6.594;2022-12-10T16:06:01;77.32;;;25.98;;
52432;SDS011;38352;53.244;6.594;2022-12-10T16:08:28;79.43;;;25.48;;
52432;SDS011;38352;53.244;6.594;2022-12-10T16:10:57;117.18;;;31.67;;
52432;SDS011;38352;53.244;6.594;2022-12-10T16:13:26;81.43;;;27.60;;
52432;SDS011;38352;53.244;6.594;2022-12-10T16:15:54;112.78;;;31.88;;
52432;SDS011;38352;53.244;6.594;2022-12-10T16:18:22;141.35;;;35.95;;
52432;SDS011;38352;53.244;6.594;2022-12-10T16:20:48;126.53;;;30.45;;
52432;SDS011;38352;53.244;6.594;2022-12-10T16:23:14;103.72;;;29.83;;
52432;SDS011;38352;53.244;6.594;2022-12-10T16:25:41;127.93;;;31.13;;
52432;SDS011;38352;53.244;6.594;2022-12-10T16:28:27;89.38;;;28.38;;
52432;SDS011;38352;53.244;6.594;2022-12-10T16:30:54;127.93;;;33.00;;
52432;SDS011;38352;53.244;6.594;2022-12-10T16:33:21;120.40;;;31.00;;